sensor_id;sensor_type;location;lat;lon;timestamp;pressure;altitude;pressure_sealevel;temperature;humidity
20228;BME280;12195;55.790;37.572;2022-09-09T00:00:59;100522.67;;;8.21;66.29
20228;BME280;12195;55.790;37.572;2022-09-09T00:03:27;100527.09;;;8.19;66.47
20228;BME280;12195;55.790;37.572;2022-09-09T00:09:15;100532.36;;;8.18;66.64
20228;BME280;12195;55.790;37.572;2022-09-09T00:14:53;100535.84;;;8.18;66.61
20228;BME280;12195;55.790;37.572;2022-09-09T00:20:34;100528.13;;;8.14;66.63
20228;BME280;12195;55.790;37.572;2022-09-09T00:23:27;100526.42;;;8.13;66.74
20228;BME280;12195;55.790;37.572;2022-09-09T00:31:30;100530.17;;;8.04;67.40
20228;BME280;12195;55.790;37.572;2022-09-09T00:34:23;100535.48;;;8.01;67.68
20228;BME280;12195;55.790;37.572;2022-09-09T00:36:50;100532.04;;;8.01;67.74
20228;BME280;12195;55.790;37.572;2022-09-09T00:39:37;100531.17;;;8.00;67.66
20228;BME280;12195;55.790;37.572;2022-09-09T00:42:16;100545.53;;;8.15;67.03
20228;BME280;12195;55.790;37.572;2022-09-09T00:44:51;100548.56;;;8.01;66.86
20228;BME280;12195;55.790;37.572;2022-09-09T00:47:50;100553.05;;;7.98;67.42
20228;BME280;12195;55.790;37.572;2022-09-09T00:50:26;100548.77;;;7.95;67.54
20228;BME280;12195;55.790;37.572;2022-09-09T00:53:11;100558.40;;;7.93;67.86
20228;BME280;12195;55.790;37.572;2022-09-09T00:58:35;100551.51;;;7.91;67.95
20228;BME280;12195;55.790;37.572;2022-09-09T01:01:12;100558.52;;;7.90;68.18
20228;BME280;12195;55.790;37.572;2022-09-09T01:03:54;100559.35;;;7.91;67.95
20228;BME280;12195;55.790;37.572;2022-09-09T01:06:33;100558.47;;;7.92;67.97
20228;BME280;12195;55.790;37.572;2022-09-09T01:14:42;100567.98;;;7.94;67.53
20228;BME280;12195;55.790;37.572;2022-09-09T01:17:24;100574.09;;;7.93;67.65
20228;BME280;12195;55.790;37.572;2022-09-09T01:20:10;100561.12;;;7.90;67.61
20228;BME280;12195;55.790;37.572;2022-09-09T01:28:25;100578.21;;;7.73;68.08
20228;BME280;12195;55.790;37.572;2022-09-09T01:30:58;100572.39;;;7.63;68.48
20228;BME280;12195;55.790;37.572;2022-09-09T01:33:32;100575.39;;;7.50;68.85
20228;BME280;12195;55.790;37.572;2022-09-09T01:36:10;100582.55;;;7.43;68.93
20228;BME280;12195;55.790;37.572;2022-09-09T01:38:49;100586.36;;;7.32;69.35
20228;BME280;12195;55.790;37.572;2022-09-09T01:41:21;100594.42;;;7.24;69.64
20228;BME280;12195;55.790;37.572;2022-09-09T01:43:55;100590.17;;;7.20;69.71
20228;BME280;12195;55.790;37.572;2022-09-09T01:46:30;100588.44;;;7.19;69.72
20228;BME280;12195;55.790;37.572;2022-09-09T01:49:05;100599.86;;;7.15;69.99
20228;BME280;12195;55.790;37.572;2022-09-09T01:51:39;100599.97;;;7.12;70.14
20228;BME280;12195;55.790;37.572;2022-09-09T01:54:14;100593.01;;;7.11;70.41
20228;BME280;12195;55.790;37.572;2022-09-09T02:02:32;100602.36;;;7.20;70.43
20228;BME280;12195;55.790;37.572;2022-09-09T02:08:05;100608.20;;;7.29;70.37
20228;BME280;12195;55.790;37.572;2022-09-09T02:10:46;100607.23;;;7.33;70.10
20228;BME280;12195;55.790;37.572;2022-09-09T02:13:18;100607.19;;;7.35;70.17
20228;BME280;12195;55.790;37.572;2022-09-09T02:16:21;100601.92;;;7.36;70.18
20228;BME280;12195;55.790;37.572;2022-09-09T02:21:46;100607.88;;;7.41;69.71
20228;BME280;12195;55.790;37.572;2022-09-09T02:24:18;100609.58;;;7.42;69.69
20228;BME280;12195;55.790;37.572;2022-09-09T02:26:53;100616.55;;;7.42;70.00
20228;BME280;12195;55.790;37.572;2022-09-09T02:29:43;100612.27;;;7.39;70.13
20228;BME280;12195;55.790;37.572;2022-09-09T02:32:21;100611.55;;;7.34;70.37
20228;BME280;12195;55.790;37.572;2022-09-09T02:34:55;100612.48;;;7.32;70.34
20228;BME280;12195;55.790;37.572;2022-09-09T02:37:23;100625.62;;;7.29;70.30
20228;BME280;12195;55.790;37.572;2022-09-09T02:39:58;100619.67;;;7.24;70.53
20228;BME280;12195;55.790;37.572;2022-09-09T02:42:31;100631.05;;;7.21;70.56
20228;BME280;12195;55.790;37.572;2022-09-09T02:45:04;100635.62;;;7.13;70.82
20228;BME280;12195;55.790;37.572;2022-09-09T02:48:02;100633.25;;;7.04;71.08
20228;BME280;12195;55.790;37.572;2022-09-09T02:56:04;100646.17;;;6.75;72.15
20228;BME280;12195;55.790;37.572;2022-09-09T02:58:39;100652.48;;;6.65;72.58
20228;BME280;12195;55.790;37.572;2022-09-09T03:01:11;100656.09;;;6.60;72.85
20228;BME280;12195;55.790;37.572;2022-09-09T03:03:45;100657.13;;;6.54;73.16
20228;BME280;12195;55.790;37.572;2022-09-09T03:06:18;100663.30;;;6.50;73.28
20228;BME280;12195;55.790;37.572;2022-09-09T03:08:52;100649.66;;;6.38;73.81
20228;BME280;12195;55.790;37.572;2022-09-09T03:11:26;100657.48;;;6.38;74.09
20228;BME280;12195;55.790;37.572;2022-09-09T03:14:00;100655.81;;;6.35;74.34
20228;BME280;12195;55.790;37.572;2022-09-09T03:16:33;100669.66;;;6.37;74.07
20228;BME280;12195;55.790;37.572;2022-09-09T03:19:05;100659.32;;;6.34;74.42
20228;BME280;12195;55.790;37.572;2022-09-09T03:21:37;100665.34;;;6.36;74.28
20228;BME280;12195;55.790;37.572;2022-09-09T03:24:09;100668.82;;;6.37;74.42
20228;BME280;12195;55.790;37.572;2022-09-09T03:26:42;100662.67;;;6.39;74.66
20228;BME280;12195;55.790;37.572;2022-09-09T03:29:17;100667.77;;;6.44;74.88
20228;BME280;12195;55.790;37.572;2022-09-09T03:31:49;100670.26;;;6.50;74.65
20228;BME280;12195;55.790;37.572;2022-09-09T03:34:22;100672.68;;;6.57;74.42
20228;BME280;12195;55.790;37.572;2022-09-09T03:36:54;100675.07;;;6.66;74.34
20228;BME280;12195;55.790;37.572;2022-09-09T03:39:27;100676.62;;;6.75;74.00
20228;BME280;12195;55.790;37.572;2022-09-09T03:42:01;100674.63;;;6.86;73.62
20228;BME280;12195;55.790;37.572;2022-09-09T03:44:36;100687.41;;;6.96;73.44
20228;BME280;12195;55.790;37.572;2022-09-09T03:47:08;100687.25;;;7.02;73.30
20228;BME280;12195;55.790;37.572;2022-09-09T03:49:40;100684.47;;;7.10;72.92
20228;BME280;12195;55.790;37.572;2022-09-09T03:52:13;100686.91;;;7.16;72.92
20228;BME280;12195;55.790;37.572;2022-09-09T03:54:45;100691.93;;;7.23;72.60
20228;BME280;12195;55.790;37.572;2022-09-09T03:57:18;100689.25;;;7.26;72.45
20228;BME280;12195;55.790;37.572;2022-09-09T03:59:51;100693.47;;;7.32;72.01
20228;BME280;12195;55.790;37.572;2022-09-09T04:02:23;100692.48;;;7.36;71.54
20228;BME280;12195;55.790;37.572;2022-09-09T04:04:55;100701.02;;;7.42;71.65
20228;BME280;12195;55.790;37.572;2022-09-09T04:07:27;100700.95;;;7.45;71.49
20228;BME280;12195;55.790;37.572;2022-09-09T04:10:00;100702.59;;;7.49;71.64
20228;BME280;12195;55.790;37.572;2022-09-09T04:12:33;100697.25;;;7.52;71.49
20228;BME280;12195;55.790;37.572;2022-09-09T04:15:05;100703.25;;;7.57;70.89
20228;BME280;12195;55.790;37.572;2022-09-09T04:17:38;100701.28;;;7.65;71.08
20228;BME280;12195;55.790;37.572;2022-09-09T04:20:10;100691.55;;;7.70;70.88
20228;BME280;12195;55.790;37.572;2022-09-09T04:22:42;100690.50;;;7.77;70.28
20228;BME280;12195;55.790;37.572;2022-09-09T04:25:15;100693.76;;;7.85;70.21
20228;BME280;12195;55.790;37.572;2022-09-09T04:27:47;100702.22;;;7.93;69.87
20228;BME280;12195;55.790;37.572;2022-09-09T04:30:21;100695.02;;;8.01;69.01
20228;BME280;12195;55.790;37.572;2022-09-09T04:32:53;100699.09;;;8.11;69.01
20228;BME280;12195;55.790;37.572;2022-09-09T04:35:25;100701.44;;;8.22;68.86
20228;BME280;12195;55.790;37.572;2022-09-09T04:37:58;100694.18;;;8.31;68.39
20228;BME280;12195;55.790;37.572;2022-09-09T04:40:31;100692.08;;;8.42;68.00
20228;BME280;12195;55.790;37.572;2022-09-09T04:43:04;100694.44;;;8.51;67.37
20228;BME280;12195;55.790;37.572;2022-09-09T04:45:38;100696.77;;;8.60;67.00
20228;BME280;12195;55.790;37.572;2022-09-09T04:48:11;100701.76;;;8.68;66.14
20228;BME280;12195;55.790;37.572;2022-09-09T04:50:53;100701.54;;;8.75;66.05
20228;BME280;12195;55.790;37.572;2022-09-09T04:53:18;100703.91;;;8.83;65.90
20228;BME280;12195;55.790;37.572;2022-09-09T04:55:50;100713.22;;;8.91;64.92
20228;BME280;12195;55.790;37.572;2022-09-09T04:58:23;100703.35;;;8.99;64.80
20228;BME280;12195;55.790;37.572;2022-09-09T05:01:05;100700.59;;;9.04;64.19
20228;BME280;12195;55.790;37.572;2022-09-09T05:03:38;100710.81;;;9.11;63.95
20228;BME280;12195;55.790;37.572;2022-09-09T05:06:17;100707.97;;;9.19;64.15
20228;BME280;12195;55.790;37.572;2022-09-09T05:08:52;100711.11;;;9.28;63.60
20228;BME280;12195;55.790;37.572;2022-09-09T05:11:27;100714.23;;;9.39;63.23
20228;BME280;12195;55.790;37.572;2022-09-09T05:14:02;100715.70;;;9.48;62.70
20228;BME280;12195;55.790;37.572;2022-09-09T05:16:35;100725.01;;;9.56;62.85
20228;BME280;12195;55.790;37.572;2022-09-09T05:19:07;100727.44;;;9.62;62.15
20228;BME280;12195;55.790;37.572;2022-09-09T05:21:44;100734.29;;;9.66;61.71
20228;BME280;12195;55.790;37.572;2022-09-09T05:24:18;100731.53;;;9.69;61.44
20228;BME280;12195;55.790;37.572;2022-09-09T05:26:51;100734.06;;;9.72;61.31
20228;BME280;12195;55.790;37.572;2022-09-09T05:29:24;100734.83;;;9.76;60.85
20228;BME280;12195;55.790;37.572;2022-09-09T05:31:57;100737.33;;;9.79;60.57
20228;BME280;12195;55.790;37.572;2022-09-09T05:34:30;100732.77;;;9.84;60.41
20228;BME280;12195;55.790;37.572;2022-09-09T05:37:03;100728.23;;;9.89;60.38
20228;BME280;12195;55.790;37.572;2022-09-09T05:39:35;100730.58;;;9.96;60.56
20228;BME280;12195;55.790;37.572;2022-09-09T05:42:10;100733.78;;;10.04;60.33
20228;BME280;12195;55.790;37.572;2022-09-09T05:44:42;100730.77;;;10.39;59.04
20228;BME280;12195;55.790;37.572;2022-09-09T05:47:15;100728.09;;;11.07;57.58
20228;BME280;12195;55.790;37.572;2022-09-09T05:49:48;100723.27;;;11.80;54.71
20228;BME280;12195;55.790;37.572;2022-09-09T05:52:20;100720.75;;;12.54;52.69
20228;BME280;12195;55.790;37.572;2022-09-09T05:54:53;100726.77;;;12.93;51.58
20228;BME280;12195;55.790;37.572;2022-09-09T05:57:28;100724.81;;;13.50;50.04
20228;BME280;12195;55.790;37.572;2022-09-09T06:00:01;100727.73;;;13.95;48.67
20228;BME280;12195;55.790;37.572;2022-09-09T06:02:35;100728.45;;;14.14;47.65
20228;BME280;12195;55.790;37.572;2022-09-09T06:05:09;100726.09;;;14.42;46.66
20228;BME280;12195;55.790;37.572;2022-09-09T06:07:43;100725.11;;;14.60;45.78
20228;BME280;12195;55.790;37.572;2022-09-09T06:10:15;100727.03;;;15.19;45.25
20228;BME280;12195;55.790;37.572;2022-09-09T06:12:48;100722.67;;;16.07;42.73
20228;BME280;12195;55.790;37.572;2022-09-09T06:15:20;100726.41;;;16.60;41.46
20228;BME280;12195;55.790;37.572;2022-09-09T06:17:55;100730.36;;;16.11;42.02
20228;BME280;12195;55.790;37.572;2022-09-09T06:20:28;100730.36;;;16.11;42.02
20228;BME280;12195;55.790;37.572;2022-09-09T06:23:03;100735.74;;;16.24;41.99
20228;BME280;12195;55.790;37.572;2022-09-09T06:25:36;100735.69;;;16.67;40.20
20228;BME280;12195;55.790;37.572;2022-09-09T06:28:10;100746.03;;;16.98;39.35
20228;BME280;12195;55.790;37.572;2022-09-09T06:30:42;100744.70;;;16.65;39.37
20228;BME280;12195;55.790;37.572;2022-09-09T06:33:15;100735.01;;;16.64;39.99
20228;BME280;12195;55.790;37.572;2022-09-09T06:35:54;100749.65;;;16.97;38.92
20228;BME280;12195;55.790;37.572;2022-09-09T06:38:28;100752.77;;;18.08;36.81
20228;BME280;12195;55.790;37.572;2022-09-09T06:41:01;100743.65;;;19.34;33.67
20228;BME280;12195;55.790;37.572;2022-09-09T06:43:33;100743.55;;;20.05;32.03
20228;BME280;12195;55.790;37.572;2022-09-09T06:46:09;100730.88;;;20.41;31.02
20228;BME280;12195;55.790;37.572;2022-09-09T06:48:43;100742.27;;;21.10;30.31
20228;BME280;12195;55.790;37.572;2022-09-09T06:51:19;100740.99;;;21.56;29.18
20228;BME280;12195;55.790;37.572;2022-09-09T06:53:56;100751.77;;;21.77;28.62
20228;BME280;12195;55.790;37.572;2022-09-09T06:56:32;100751.41;;;21.39;29.31
20228;BME280;12195;55.790;37.572;2022-09-09T06:59:07;100746.41;;;20.70;30.31
20228;BME280;12195;55.790;37.572;2022-09-09T07:01:42;100752.75;;;19.43;32.04
20228;BME280;12195;55.790;37.572;2022-09-09T07:04:24;100759.78;;;18.09;34.46
20228;BME280;12195;55.790;37.572;2022-09-09T07:06:57;100759.33;;;17.25;35.90
20228;BME280;12195;55.790;37.572;2022-09-09T07:09:30;100767.34;;;16.42;37.97
20228;BME280;12195;55.790;37.572;2022-09-09T07:12:02;100770.22;;;15.80;38.69
20228;BME280;12195;55.790;37.572;2022-09-09T07:14:38;100772.25;;;14.52;41.31
20228;BME280;12195;55.790;37.572;2022-09-09T07:17:10;100772.25;;;14.52;41.31
20228;BME280;12195;55.790;37.572;2022-09-09T07:19:43;100790.88;;;14.17;42.19
20228;BME280;12195;55.790;37.572;2022-09-09T07:22:17;100782.58;;;13.90;43.15
20228;BME280;12195;55.790;37.572;2022-09-09T07:24:50;100782.95;;;13.83;43.33
20228;BME280;12195;55.790;37.572;2022-09-09T07:27:23;100783.41;;;13.91;42.65
20228;BME280;12195;55.790;37.572;2022-09-09T07:29:55;100787.68;;;13.93;43.50
20228;BME280;12195;55.790;37.572;2022-09-09T07:32:30;100798.63;;;14.03;43.46
20228;BME280;12195;55.790;37.572;2022-09-09T07:35:02;100794.75;;;14.10;42.76
20228;BME280;12195;55.790;37.572;2022-09-09T07:37:37;100793.59;;;14.15;42.56
20228;BME280;12195;55.790;37.572;2022-09-09T07:40:09;100796.37;;;14.12;43.16
20228;BME280;12195;55.790;37.572;2022-09-09T07:42:42;100805.70;;;14.19;42.65
20228;BME280;12195;55.790;37.572;2022-09-09T07:45:14;100805.18;;;14.30;42.19
20228;BME280;12195;55.790;37.572;2022-09-09T07:47:47;100807.41;;;14.37;42.60
20228;BME280;12195;55.790;37.572;2022-09-09T07:50:20;100809.37;;;14.34;42.50
20228;BME280;12195;55.790;37.572;2022-09-09T07:52:53;100818.20;;;14.33;42.53
20228;BME280;12195;55.790;37.572;2022-09-09T07:55:28;100813.56;;;14.38;42.09
20228;BME280;12195;55.790;37.572;2022-09-09T07:58:01;100820.59;;;14.54;40.70
20228;BME280;12195;55.790;37.572;2022-09-09T08:00:34;100811.03;;;14.84;40.05
20228;BME280;12195;55.790;37.572;2022-09-09T08:03:07;100809.84;;;15.21;39.51
20228;BME280;12195;55.790;37.572;2022-09-09T08:05:40;100815.32;;;15.49;39.67
20228;BME280;12195;55.790;37.572;2022-09-09T08:08:14;100808.66;;;15.42;39.55
20228;BME280;12195;55.790;37.572;2022-09-09T08:10:47;100808.66;;;15.42;39.55
20228;BME280;12195;55.790;37.572;2022-09-09T08:13:19;100804.91;;;15.15;39.08
20228;BME280;12195;55.790;37.572;2022-09-09T08:15:51;100808.47;;;14.98;39.93
20228;BME280;12195;55.790;37.572;2022-09-09T08:18:26;100819.72;;;14.86;39.49
20228;BME280;12195;55.790;37.572;2022-09-09T08:21:07;100824.80;;;14.74;39.95
20228;BME280;12195;55.790;37.572;2022-09-09T08:23:44;100812.42;;;14.59;40.52
20228;BME280;12195;55.790;37.572;2022-09-09T08:26:22;100814.70;;;14.49;40.70
20228;BME280;12195;55.790;37.572;2022-09-09T08:28:56;100818.28;;;14.48;41.24
20228;BME280;12195;55.790;37.572;2022-09-09T08:31:31;100816.58;;;14.47;41.97
20228;BME280;12195;55.790;37.572;2022-09-09T08:34:06;100820.84;;;14.50;41.13
20228;BME280;12195;55.790;37.572;2022-09-09T08:36:42;100818.96;;;14.52;41.27
20228;BME280;12195;55.790;37.572;2022-09-09T08:39:17;100825.19;;;14.51;41.69
20228;BME280;12195;55.790;37.572;2022-09-09T08:47:49;100843.02;;;14.47;41.56
20228;BME280;12195;55.790;37.572;2022-09-09T08:55:53;100797.37;;;14.76;40.56
20228;BME280;12195;55.790;37.572;2022-09-09T08:58:33;100802.47;;;14.79;40.22
20228;BME280;12195;55.790;37.572;2022-09-09T09:12:54;100834.67;;;15.34;40.19
20228;BME280;12195;55.790;37.572;2022-09-09T09:15:31;100844.83;;;15.26;40.04
20228;BME280;12195;55.790;37.572;2022-09-09T09:18:04;100818.02;;;15.01;40.01
20228;BME280;12195;55.790;37.572;2022-09-09T09:20:58;100839.34;;;14.98;39.54
20228;BME280;12195;55.790;37.572;2022-09-09T09:23:45;100839.34;;;14.98;39.54
20228;BME280;12195;55.790;37.572;2022-09-09T09:26:11;100833.17;;;14.82;41.63
20228;BME280;12195;55.790;37.572;2022-09-09T09:28:45;100833.17;;;14.82;41.63
20228;BME280;12195;55.790;37.572;2022-09-09T09:31:20;100836.19;;;14.91;40.40
20228;BME280;12195;55.790;37.572;2022-09-09T09:33:54;100841.83;;;15.01;40.44
20228;BME280;12195;55.790;37.572;2022-09-09T09:36:52;100830.66;;;15.11;39.19
20228;BME280;12195;55.790;37.572;2022-09-09T09:39:23;100817.08;;;14.86;38.63
20228;BME280;12195;55.790;37.572;2022-09-09T09:42:07;100817.08;;;14.86;38.63
20228;BME280;12195;55.790;37.572;2022-09-09T09:44:36;100829.20;;;15.06;38.29
20228;BME280;12195;55.790;37.572;2022-09-09T09:47:15;100829.20;;;15.06;38.29
20228;BME280;12195;55.790;37.572;2022-09-09T09:49:56;100822.99;;;15.22;37.82
20228;BME280;12195;55.790;37.572;2022-09-09T09:52:32;100823.67;;;15.41;38.20
20228;BME280;12195;55.790;37.572;2022-09-09T09:55:12;100825.12;;;15.92;37.82
20228;BME280;12195;55.790;37.572;2022-09-09T09:57:44;100806.50;;;15.93;37.79
20228;BME280;12195;55.790;37.572;2022-09-09T10:00:22;100806.50;;;15.93;37.79
20228;BME280;12195;55.790;37.572;2022-09-09T10:03:00;100807.50;;;15.77;37.82
20228;BME280;12195;55.790;37.572;2022-09-09T10:05:35;100801.30;;;15.47;38.20
20228;BME280;12195;55.790;37.572;2022-09-09T10:08:14;100801.30;;;15.47;38.20
20228;BME280;12195;55.790;37.572;2022-09-09T10:14:24;100828.77;;;14.98;38.84
20228;BME280;12195;55.790;37.572;2022-09-09T10:16:55;100833.02;;;14.85;39.86
20228;BME280;12195;55.790;37.572;2022-09-09T10:19:30;100823.67;;;15.10;39.19
20228;BME280;12195;55.790;37.572;2022-09-09T10:22:18;100818.43;;;15.71;39.24
20228;BME280;12195;55.790;37.572;2022-09-09T10:28:06;100818.08;;;16.78;35.47
20228;BME280;12195;55.790;37.572;2022-09-09T10:31:08;100820.71;;;17.06;35.30
20228;BME280;12195;55.790;37.572;2022-09-09T10:33:55;100820.34;;;17.12;35.85
20228;BME280;12195;55.790;37.572;2022-09-09T10:36:25;100828.03;;;17.03;36.05
20228;BME280;12195;55.790;37.572;2022-09-09T10:42:15;100834.88;;;16.65;36.33
20228;BME280;12195;55.790;37.572;2022-09-09T10:45:15;100835.25;;;16.29;36.44
20228;BME280;12195;55.790;37.572;2022-09-09T10:48:16;100834.39;;;15.85;37.72
20228;BME280;12195;55.790;37.572;2022-09-09T10:53:31;100835.03;;;15.28;38.69
20228;BME280;12195;55.790;37.572;2022-09-09T10:56:04;100815.81;;;15.09;37.81
20228;BME280;12195;55.790;37.572;2022-09-09T10:58:50;100815.81;;;15.09;37.81
20228;BME280;12195;55.790;37.572;2022-09-09T11:01:17;100829.33;;;15.35;36.85
20228;BME280;12195;55.790;37.572;2022-09-09T11:03:51;100833.83;;;15.64;36.25
20228;BME280;12195;55.790;37.572;2022-09-09T11:06:25;100821.08;;;15.71;35.66
20228;BME280;12195;55.790;37.572;2022-09-09T11:09:01;100828.06;;;15.88;37.89
20228;BME280;12195;55.790;37.572;2022-09-09T11:11:37;100820.69;;;15.93;36.48
20228;BME280;12195;55.790;37.572;2022-09-09T11:17:23;100830.08;;;15.98;36.64
20228;BME280;12195;55.790;37.572;2022-09-09T11:19:50;100827.03;;;15.90;36.77
20228;BME280;12195;55.790;37.572;2022-09-09T11:22:32;100838.50;;;15.75;36.65
20228;BME280;12195;55.790;37.572;2022-09-09T11:25:29;100838.25;;;15.64;37.47
20228;BME280;12195;55.790;37.572;2022-09-09T11:34:02;100837.19;;;15.37;37.73
20228;BME280;12195;55.790;37.572;2022-09-09T11:36:47;100838.27;;;15.33;37.25
20228;BME280;12195;55.790;37.572;2022-09-09T11:41:52;100835.80;;;15.45;38.65
20228;BME280;12195;55.790;37.572;2022-09-09T11:44:29;100835.80;;;15.45;38.65
20228;BME280;12195;55.790;37.572;2022-09-09T11:47:00;100842.83;;;15.46;38.85
20228;BME280;12195;55.790;37.572;2022-09-09T11:49:40;100844.02;;;15.41;38.73
20228;BME280;12195;55.790;37.572;2022-09-09T11:54:57;100817.00;;;15.03;39.26
20228;BME280;12195;55.790;37.572;2022-09-09T11:57:34;100848.27;;;15.28;39.47
20228;BME280;12195;55.790;37.572;2022-09-09T12:00:28;100850.28;;;15.07;39.26
20228;BME280;12195;55.790;37.572;2022-09-09T12:02:47;100846.38;;;14.99;38.89
20228;BME280;12195;55.790;37.572;2022-09-09T12:05:16;100826.75;;;15.03;38.83
20228;BME280;12195;55.790;37.572;2022-09-09T12:07:56;100829.04;;;15.09;38.82
20228;BME280;12195;55.790;37.572;2022-09-09T12:10:38;100821.53;;;15.17;37.88
20228;BME280;12195;55.790;37.572;2022-09-09T12:13:19;100819.69;;;15.34;37.31
20228;BME280;12195;55.790;37.572;2022-09-09T12:15:56;100820.59;;;15.64;36.63
20228;BME280;12195;55.790;37.572;2022-09-09T12:18:37;100827.85;;;16.20;35.95
20228;BME280;12195;55.790;37.572;2022-09-09T12:21:33;100790.19;;;17.13;34.01
20228;BME280;12195;55.790;37.572;2022-09-09T12:24:13;100790.19;;;17.13;34.01
20228;BME280;12195;55.790;37.572;2022-09-09T12:29:58;100824.15;;;18.14;33.18
20228;BME280;12195;55.790;37.572;2022-09-09T12:32:13;100823.95;;;18.30;32.76
20228;BME280;12195;55.790;37.572;2022-09-09T12:35:00;100814.67;;;19.70;30.98
20228;BME280;12195;55.790;37.572;2022-09-09T12:38:00;100809.17;;;21.93;27.95
20228;BME280;12195;55.790;37.572;2022-09-09T12:40:23;100799.81;;;24.53;24.59
20228;BME280;12195;55.790;37.572;2022-09-09T12:42:56;100798.06;;;26.58;21.81
20228;BME280;12195;55.790;37.572;2022-09-09T12:45:31;100793.01;;;27.87;20.15
20228;BME280;12195;55.790;37.572;2022-09-09T12:48:08;100796.00;;;28.72;19.61
20228;BME280;12195;55.790;37.572;2022-09-09T12:50:48;100802.00;;;30.21;18.44
20228;BME280;12195;55.790;37.572;2022-09-09T12:53:36;100783.33;;;31.42;16.85
20228;BME280;12195;55.790;37.572;2022-09-09T12:56:17;100782.52;;;32.25;15.66
20228;BME280;12195;55.790;37.572;2022-09-09T12:58:47;100779.80;;;33.14;14.96
20228;BME280;12195;55.790;37.572;2022-09-09T13:01:30;100779.67;;;34.02;14.76
20228;BME280;12195;55.790;37.572;2022-09-09T13:04:23;100784.94;;;34.43;13.61
20228;BME280;12195;55.790;37.572;2022-09-09T13:06:51;100781.18;;;33.38;14.10
20228;BME280;12195;55.790;37.572;2022-09-09T13:09:23;100784.11;;;32.62;14.81
20228;BME280;12195;55.790;37.572;2022-09-09T13:11:57;100794.34;;;32.32;14.94
20228;BME280;12195;55.790;37.572;2022-09-09T13:14:37;100781.66;;;31.41;15.27
20228;BME280;12195;55.790;37.572;2022-09-09T13:17:15;100785.23;;;31.41;15.68
20228;BME280;12195;55.790;37.572;2022-09-09T13:19:43;100786.01;;;30.92;15.95
20228;BME280;12195;55.790;37.572;2022-09-09T13:27:58;100792.22;;;31.50;15.54
20228;BME280;12195;55.790;37.572;2022-09-09T13:30:35;100795.00;;;29.20;17.07
20228;BME280;12195;55.790;37.572;2022-09-09T13:35:59;100809.71;;;26.41;20.01
20228;BME280;12195;55.790;37.572;2022-09-09T13:38:38;100807.13;;;26.14;20.42
20228;BME280;12195;55.790;37.572;2022-09-09T13:41:11;100799.97;;;25.87;21.24
20228;BME280;12195;55.790;37.572;2022-09-09T13:43:45;100797.53;;;24.58;22.01
20228;BME280;12195;55.790;37.572;2022-09-09T13:46:27;100811.40;;;24.63;22.87
20228;BME280;12195;55.790;37.572;2022-09-09T13:49:18;100817.08;;;21.95;25.77
20228;BME280;12195;55.790;37.572;2022-09-09T13:51:36;100814.11;;;20.58;27.76
20228;BME280;12195;55.790;37.572;2022-09-09T13:54:13;100818.70;;;19.75;28.65
20228;BME280;12195;55.790;37.572;2022-09-09T13:56:46;100823.52;;;18.86;30.44
20228;BME280;12195;55.790;37.572;2022-09-09T13:59:20;100821.26;;;18.05;31.37
20228;BME280;12195;55.790;37.572;2022-09-09T14:01:52;100821.78;;;17.44;31.63
20228;BME280;12195;55.790;37.572;2022-09-09T14:04:25;100822.93;;;16.86;32.78
20228;BME280;12195;55.790;37.572;2022-09-09T14:06:57;100818.46;;;16.44;33.15
20228;BME280;12195;55.790;37.572;2022-09-09T14:09:30;100815.08;;;16.27;33.46
20228;BME280;12195;55.790;37.572;2022-09-09T14:12:02;100811.66;;;16.68;33.52
20228;BME280;12195;55.790;37.572;2022-09-09T14:14:35;100809.28;;;17.85;31.72
20228;BME280;12195;55.790;37.572;2022-09-09T14:17:08;100804.30;;;19.54;29.68
20228;BME280;12195;55.790;37.572;2022-09-09T14:19:41;100800.55;;;21.58;26.63
20228;BME280;12195;55.790;37.572;2022-09-09T14:22:14;100799.34;;;21.94;25.88
20228;BME280;12195;55.790;37.572;2022-09-09T14:24:47;100791.90;;;23.28;24.10
20228;BME280;12195;55.790;37.572;2022-09-09T14:27:20;100799.05;;;23.86;23.79
20228;BME280;12195;55.790;37.572;2022-09-09T14:29:52;100789.16;;;23.09;24.39
20228;BME280;12195;55.790;37.572;2022-09-09T14:32:25;100806.50;;;21.93;25.72
20228;BME280;12195;55.790;37.572;2022-09-09T14:34:57;100805.98;;;20.81;27.32
20228;BME280;12195;55.790;37.572;2022-09-09T14:37:31;100804.45;;;19.87;28.72
20228;BME280;12195;55.790;37.572;2022-09-09T14:40:04;100801.25;;;18.99;29.70
20228;BME280;12195;55.790;37.572;2022-09-09T14:42:37;100798.29;;;18.16;30.69
20228;BME280;12195;55.790;37.572;2022-09-09T14:45:10;100809.56;;;18.07;30.97
20228;BME280;12195;55.790;37.572;2022-09-09T14:47:43;100802.63;;;16.99;32.73
20228;BME280;12195;55.790;37.572;2022-09-09T14:50:16;100806.81;;;16.47;33.80
20228;BME280;12195;55.790;37.572;2022-09-09T14:52:48;100811.38;;;16.15;34.92
20228;BME280;12195;55.790;37.572;2022-09-09T14:55:21;100818.99;;;15.92;35.62
20228;BME280;12195;55.790;37.572;2022-09-09T14:57:54;100808.33;;;15.77;35.38
20228;BME280;12195;55.790;37.572;2022-09-09T15:00:26;100816.16;;;15.65;35.05
20228;BME280;12195;55.790;37.572;2022-09-09T15:02:59;100804.90;;;15.46;35.45
20228;BME280;12195;55.790;37.572;2022-09-09T15:05:31;100815.88;;;15.23;35.78
20228;BME280;12195;55.790;37.572;2022-09-09T15:08:04;100814.95;;;14.93;36.84
20228;BME280;12195;55.790;37.572;2022-09-09T15:10:36;100819.93;;;14.66;37.42
20228;BME280;12195;55.790;37.572;2022-09-09T15:13:10;100817.75;;;14.42;38.02